sensor_id;sensor_type;location;lat;lon;timestamp;pressure;altitude;pressure_sealevel;temperature;humidity
55171;BME280;41060;47.510;8.680;2022-11-14T00:01:11;97149.16;;;8.94;60.48
55171;BME280;41060;47.510;8.680;2022-11-14T00:03:39;97127.00;;;8.97;60.60
55171;BME280;41060;47.510;8.680;2022-11-14T00:06:06;97128.78;;;8.96;60.39
55171;BME280;41060;47.510;8.680;2022-11-14T00:08:34;97126.88;;;8.98;60.86
55171;BME280;41060;47.510;8.680;2022-11-14T00:11:02;97129.47;;;9.11;60.37
55171;BME280;41060;47.510;8.680;2022-11-14T00:13:29;97139.09;;;9.12;60.40
55171;BME280;41060;47.510;8.680;2022-11-14T00:15:55;97131.16;;;9.12;60.37
55171;BME280;41060;47.510;8.680;2022-11-14T00:18:23;97128.25;;;9.15;60.11
55171;BME280;41060;47.510;8.680;2022-11-14T00:20:50;97131.66;;;9.17;60.11
55171;BME280;41060;47.510;8.680;2022-11-14T00:23:18;97124.47;;;9.19;59.78
55171;BME280;41060;47.510;8.680;2022-11-14T00:25:47;97121.09;;;9.17;59.79
55171;BME280;41060;47.510;8.680;2022-11-14T00:28:14;97119.19;;;9.19;59.71
55171;BME280;41060;47.510;8.680;2022-11-14T00:30:40;97070.69;;;8.96;59.84
55171;BME280;41060;47.510;8.680;2022-11-14T00:33:08;97111.56;;;9.27;59.65
55171;BME280;41060;47.510;8.680;2022-11-14T00:35:34;97105.28;;;9.28;59.40
55171;BME280;41060;47.510;8.680;2022-11-14T00:38:01;97112.78;;;9.34;59.22
55171;BME280;41060;47.510;8.680;2022-11-14T00:40:28;97108.56;;;9.32;59.51
55171;BME280;41060;47.510;8.680;2022-11-14T00:42:56;97110.16;;;9.34;59.34
55171;BME280;41060;47.510;8.680;2022-11-14T00:45:23;97115.53;;;9.33;59.41
55171;BME280;41060;47.510;8.680;2022-11-14T00:47:50;97121.88;;;9.30;59.46
55171;BME280;41060;47.510;8.680;2022-11-14T00:50:16;97113.22;;;9.28;59.72
55171;BME280;41060;47.510;8.680;2022-11-14T00:52:43;97121.78;;;9.32;59.97
55171;BME280;41060;47.510;8.680;2022-11-14T00:55:10;97091.28;;;9.15;59.57
55171;BME280;41060;47.510;8.680;2022-11-14T00:57:37;97115.16;;;9.26;59.86
55171;BME280;41060;47.510;8.680;2022-11-14T01:00:06;97107.66;;;9.20;59.76
55171;BME280;41060;47.510;8.680;2022-11-14T01:02:33;97117.81;;;9.13;60.27
55171;BME280;41060;47.510;8.680;2022-11-14T01:05:00;97106.53;;;9.11;60.17
55171;BME280;41060;47.510;8.680;2022-11-14T01:07:27;97108.72;;;9.17;59.89
55171;BME280;41060;47.510;8.680;2022-11-14T01:09:54;97112.63;;;9.25;59.49
55171;BME280;41060;47.510;8.680;2022-11-14T01:12:21;97109.63;;;9.29;59.74
55171;BME280;41060;47.510;8.680;2022-11-14T01:14:47;97108.34;;;9.11;59.81
55171;BME280;41060;47.510;8.680;2022-11-14T01:17:16;97109.84;;;9.02;60.29
55171;BME280;41060;47.510;8.680;2022-11-14T01:19:42;97106.72;;;8.97;60.77
55171;BME280;41060;47.510;8.680;2022-11-14T01:22:09;97107.59;;;9.09;60.01
55171;BME280;41060;47.510;8.680;2022-11-14T01:24:36;97096.81;;;9.12;60.32
55171;BME280;41060;47.510;8.680;2022-11-14T01:27:03;97095.34;;;9.08;60.01
55171;BME280;41060;47.510;8.680;2022-11-14T01:29:29;97097.19;;;8.95;60.41
55171;BME280;41060;47.510;8.680;2022-11-14T01:31:56;97100.63;;;9.08;60.34
55171;BME280;41060;47.510;8.680;2022-11-14T01:34:24;97099.22;;;9.15;60.33
55171;BME280;41060;47.510;8.680;2022-11-14T01:36:51;97099.94;;;9.17;59.73
55171;BME280;41060;47.510;8.680;2022-11-14T01:39:18;97092.25;;;9.14;59.87
55171;BME280;41060;47.510;8.680;2022-11-14T01:41:44;97086.34;;;9.10;59.74
55171;BME280;41060;47.510;8.680;2022-11-14T01:44:15;97062.03;;;8.94;60.08
55171;BME280;41060;47.510;8.680;2022-11-14T01:46:45;97084.09;;;9.17;59.65
55171;BME280;41060;47.510;8.680;2022-11-14T01:49:16;97075.72;;;9.23;59.99
55171;BME280;41060;47.510;8.680;2022-11-14T01:51:49;97053.47;;;9.14;59.70
55171;BME280;41060;47.510;8.680;2022-11-14T01:54:20;97082.13;;;9.32;59.37
55171;BME280;41060;47.510;8.680;2022-11-14T01:56:52;97069.16;;;9.29;59.29
55171;BME280;41060;47.510;8.680;2022-11-14T01:59:24;97073.00;;;9.25;59.60
55171;BME280;41060;47.510;8.680;2022-11-14T02:01:55;97068.47;;;9.14;59.76
55171;BME280;41060;47.510;8.680;2022-11-14T02:04:25;97062.41;;;9.01;60.36
55171;BME280;41060;47.510;8.680;2022-11-14T02:06:58;97054.84;;;8.96;60.44
55171;BME280;41060;47.510;8.680;2022-11-14T02:09:27;97015.53;;;8.81;60.68
55171;BME280;41060;47.510;8.680;2022-11-14T02:11:58;97041.19;;;9.02;60.09
55171;BME280;41060;47.510;8.680;2022-11-14T02:14:27;97019.56;;;8.97;60.33
55171;BME280;41060;47.510;8.680;2022-11-14T02:16:54;97050.22;;;9.11;60.10
55171;BME280;41060;47.510;8.680;2022-11-14T02:19:28;97042.19;;;9.12;60.17
55171;BME280;41060;47.510;8.680;2022-11-14T02:22:08;97043.75;;;9.15;59.59
55171;BME280;41060;47.510;8.680;2022-11-14T02:24:35;97046.94;;;9.07;60.15
55171;BME280;41060;47.510;8.680;2022-11-14T02:27:03;97045.59;;;8.91;60.39
55171;BME280;41060;47.510;8.680;2022-11-14T02:29:34;97044.78;;;8.77;60.86
55171;BME280;41060;47.510;8.680;2022-11-14T02:32:05;97053.16;;;8.71;60.63
55171;BME280;41060;47.510;8.680;2022-11-14T02:34:31;97046.13;;;8.59;61.34
55171;BME280;41060;47.510;8.680;2022-11-14T02:36:58;97013.59;;;8.35;61.16
55171;BME280;41060;47.510;8.680;2022-11-14T02:39:26;97052.91;;;8.51;61.00
55171;BME280;41060;47.510;8.680;2022-11-14T02:41:53;97053.38;;;8.45;61.08
55171;BME280;41060;47.510;8.680;2022-11-14T02:44:22;97054.75;;;8.37;61.43
55171;BME280;41060;47.510;8.680;2022-11-14T02:46:49;97054.03;;;8.35;61.48
55171;BME280;41060;47.510;8.680;2022-11-14T02:49:15;97054.41;;;8.42;61.57
55171;BME280;41060;47.510;8.680;2022-11-14T02:51:44;97042.19;;;8.41;60.79
55171;BME280;41060;47.510;8.680;2022-11-14T02:54:14;97052.97;;;8.62;60.61
55171;BME280;41060;47.510;8.680;2022-11-14T02:56:42;97060.47;;;8.68;60.30
55171;BME280;41060;47.510;8.680;2022-11-14T02:59:08;97064.22;;;8.76;60.38
55171;BME280;41060;47.510;8.680;2022-11-14T03:01:35;97058.81;;;8.78;59.58
55171;BME280;41060;47.510;8.680;2022-11-14T03:04:02;97064.34;;;8.75;59.94
55171;BME280;41060;47.510;8.680;2022-11-14T03:06:29;97060.00;;;8.74;60.04
55171;BME280;41060;47.510;8.680;2022-11-14T03:08:57;97055.22;;;8.79;59.39
55171;BME280;41060;47.510;8.680;2022-11-14T03:11:24;97056.81;;;8.82;59.67
55171;BME280;41060;47.510;8.680;2022-11-14T03:13:52;97056.34;;;8.88;59.44
55171;BME280;41060;47.510;8.680;2022-11-14T03:16:20;97052.78;;;8.89;59.55
55171;BME280;41060;47.510;8.680;2022-11-14T03:18:46;97051.47;;;8.94;59.47
55171;BME280;41060;47.510;8.680;2022-11-14T03:21:15;97011.66;;;8.73;58.99
55171;BME280;41060;47.510;8.680;2022-11-14T03:23:43;97040.78;;;8.96;58.60
55171;BME280;41060;47.510;8.680;2022-11-14T03:26:10;97044.97;;;8.87;58.93
55171;BME280;41060;47.510;8.680;2022-11-14T03:28:38;97053.53;;;8.78;59.70
55171;BME280;41060;47.510;8.680;2022-11-14T03:31:08;97025.03;;;8.59;59.65
55171;BME280;41060;47.510;8.680;2022-11-14T03:33:35;97048.13;;;8.56;60.42
55171;BME280;41060;47.510;8.680;2022-11-14T03:36:03;97057.00;;;8.55;60.94
55171;BME280;41060;47.510;8.680;2022-11-14T03:38:30;97054.38;;;8.55;61.03
55171;BME280;41060;47.510;8.680;2022-11-14T03:40:58;97048.50;;;8.51;60.84
55171;BME280;41060;47.510;8.680;2022-11-14T03:43:29;97046.78;;;8.50;61.04
55171;BME280;41060;47.510;8.680;2022-11-14T03:45:56;97037.13;;;8.38;61.76
55171;BME280;41060;47.510;8.680;2022-11-14T03:48:24;97051.34;;;8.48;61.28
55171;BME280;41060;47.510;8.680;2022-11-14T03:50:51;97048.25;;;8.54;60.96
55171;BME280;41060;47.510;8.680;2022-11-14T03:53:20;97047.44;;;8.54;61.44
55171;BME280;41060;47.510;8.680;2022-11-14T03:55:47;97043.22;;;8.51;60.94
55171;BME280;41060;47.510;8.680;2022-11-14T03:58:13;97056.13;;;8.67;60.61
55171;BME280;41060;47.510;8.680;2022-11-14T04:00:40;97059.78;;;8.77;60.57
55171;BME280;41060;47.510;8.680;2022-11-14T04:03:07;97055.97;;;8.81;60.30
55171;BME280;41060;47.510;8.680;2022-11-14T04:05:38;97058.38;;;8.84;60.34
55171;BME280;41060;47.510;8.680;2022-11-14T04:08:06;97059.94;;;8.87;60.00
55171;BME280;41060;47.510;8.680;2022-11-14T04:10:32;97058.78;;;8.91;59.60
55171;BME280;41060;47.510;8.680;2022-11-14T04:12:59;97054.94;;;8.95;59.50
55171;BME280;41060;47.510;8.680;2022-11-14T04:15:26;97060.72;;;9.00;59.53
55171;BME280;41060;47.510;8.680;2022-11-14T04:17:52;97056.06;;;9.03;59.02
55171;BME280;41060;47.510;8.680;2022-11-14T04:20:19;97064.38;;;9.10;59.15
55171;BME280;41060;47.510;8.680;2022-11-14T04:22:47;97063.53;;;9.09;59.11
55171;BME280;41060;47.510;8.680;2022-11-14T04:25:14;97070.16;;;9.15;59.12
55171;BME280;41060;47.510;8.680;2022-11-14T04:27:40;97056.19;;;9.02;58.93
55171;BME280;41060;47.510;8.680;2022-11-14T04:30:10;97065.97;;;9.12;58.95
55171;BME280;41060;47.510;8.680;2022-11-14T04:32:36;97069.94;;;9.18;59.01
55171;BME280;41060;47.510;8.680;2022-11-14T04:35:03;97062.75;;;9.20;58.92
55171;BME280;41060;47.510;8.680;2022-11-14T04:37:30;97063.19;;;9.14;59.01
55171;BME280;41060;47.510;8.680;2022-11-14T04:39:58;97062.97;;;9.17;59.16
55171;BME280;41060;47.510;8.680;2022-11-14T04:42:26;97058.63;;;9.16;59.11
55171;BME280;41060;47.510;8.680;2022-11-14T04:44:54;97050.16;;;9.00;59.70
55171;BME280;41060;47.510;8.680;2022-11-14T04:47:20;97049.75;;;8.82;60.39
55171;BME280;41060;47.510;8.680;2022-11-14T04:49:47;97041.16;;;8.67;61.23
55171;BME280;41060;47.510;8.680;2022-11-14T04:52:14;97045.28;;;8.59;61.30
55171;BME280;41060;47.510;8.680;2022-11-14T04:54:40;97040.19;;;8.68;60.76
55171;BME280;41060;47.510;8.680;2022-11-14T04:57:08;97042.31;;;8.63;60.70
55171;BME280;41060;47.510;8.680;2022-11-14T04:59:35;97030.72;;;8.77;60.75
55171;BME280;41060;47.510;8.680;2022-11-14T05:02:02;97035.59;;;8.59;61.30
55171;BME280;41060;47.510;8.680;2022-11-14T05:04:28;97037.75;;;8.42;62.19
55171;BME280;41060;47.510;8.680;2022-11-14T05:06:55;97034.72;;;8.35;62.46
55171;BME280;41060;47.510;8.680;2022-11-14T05:09:22;97029.25;;;8.25;62.85
55171;BME280;41060;47.510;8.680;2022-11-14T05:11:48;97026.44;;;8.39;62.32
55171;BME280;41060;47.510;8.680;2022-11-14T05:14:17;97023.53;;;8.55;61.95
55171;BME280;41060;47.510;8.680;2022-11-14T05:16:44;97024.84;;;8.73;61.80
55171;BME280;41060;47.510;8.680;2022-11-14T05:19:10;97015.63;;;8.79;61.18
55171;BME280;41060;47.510;8.680;2022-11-14T05:21:37;97010.34;;;8.79;61.28
55171;BME280;41060;47.510;8.680;2022-11-14T05:24:04;97013.91;;;8.91;60.81
55171;BME280;41060;47.510;8.680;2022-11-14T05:26:31;97002.25;;;8.93;61.65
55171;BME280;41060;47.510;8.680;2022-11-14T05:28:58;97006.00;;;9.02;61.55
55171;BME280;41060;47.510;8.680;2022-11-14T05:31:26;97002.31;;;9.04;60.98
55171;BME280;41060;47.510;8.680;2022-11-14T05:33:54;97007.31;;;8.96;61.65
55171;BME280;41060;47.510;8.680;2022-11-14T05:36:24;97008.16;;;8.73;63.18
55171;BME280;41060;47.510;8.680;2022-11-14T05:38:51;97008.78;;;8.76;62.87
55171;BME280;41060;47.510;8.680;2022-11-14T05:41:20;97012.31;;;8.88;62.88
55171;BME280;41060;47.510;8.680;2022-11-14T05:43:47;97009.56;;;8.90;63.24
55171;BME280;41060;47.510;8.680;2022-11-14T05:46:15;97006.19;;;8.88;63.01
55171;BME280;41060;47.510;8.680;2022-11-14T05:48:42;97003.38;;;8.78;62.51
55171;BME280;41060;47.510;8.680;2022-11-14T05:51:11;97006.75;;;8.56;63.21
55171;BME280;41060;47.510;8.680;2022-11-14T05:53:38;97002.16;;;8.71;63.29
55171;BME280;41060;47.510;8.680;2022-11-14T05:56:09;96994.03;;;8.85;63.06
55171;BME280;41060;47.510;8.680;2022-11-14T05:58:36;96993.56;;;8.56;62.70
55171;BME280;41060;47.510;8.680;2022-11-14T06:01:04;96998.91;;;8.67;62.87
55171;BME280;41060;47.510;8.680;2022-11-14T06:03:32;97002.22;;;8.82;62.47
55171;BME280;41060;47.510;8.680;2022-11-14T06:06:02;96985.44;;;8.83;61.89
55171;BME280;41060;47.510;8.680;2022-11-14T06:08:30;96987.09;;;8.84;61.46
55171;BME280;41060;47.510;8.680;2022-11-14T06:11:01;97009.97;;;9.07;61.11
55171;BME280;41060;47.510;8.680;2022-11-14T06:13:28;97013.94;;;9.02;60.58
55171;BME280;41060;47.510;8.680;2022-11-14T06:15:57;97004.84;;;9.06;60.61
55171;BME280;41060;47.510;8.680;2022-11-14T06:18:26;97014.09;;;9.11;60.57
55171;BME280;41060;47.510;8.680;2022-11-14T06:20:57;97026.56;;;9.09;60.69
55171;BME280;41060;47.510;8.680;2022-11-14T06:23:25;97018.16;;;9.15;60.15
55171;BME280;41060;47.510;8.680;2022-11-14T06:25:57;97021.44;;;9.19;60.23
55171;BME280;41060;47.510;8.680;2022-11-14T06:28:26;97028.25;;;9.10;60.59
55171;BME280;41060;47.510;8.680;2022-11-14T06:30:56;97030.41;;;9.05;64.30
55171;BME280;41060;47.510;8.680;2022-11-14T06:33:26;97014.19;;;9.10;63.14
55171;BME280;41060;47.510;8.680;2022-11-14T06:35:57;97034.31;;;9.00;61.63
55171;BME280;41060;47.510;8.680;2022-11-14T06:38:25;97044.03;;;8.99;61.63
55171;BME280;41060;47.510;8.680;2022-11-14T06:41:00;97033.88;;;9.06;62.16
55171;BME280;41060;47.510;8.680;2022-11-14T06:43:27;97035.63;;;8.94;62.16
55171;BME280;41060;47.510;8.680;2022-11-14T06:45:54;97036.94;;;8.89;62.41
55171;BME280;41060;47.510;8.680;2022-11-14T06:48:20;97037.09;;;8.74;62.40
55171;BME280;41060;47.510;8.680;2022-11-14T06:50:53;97023.00;;;8.63;62.76
55171;BME280;41060;47.510;8.680;2022-11-14T06:53:26;97049.56;;;8.72;62.73
55171;BME280;41060;47.510;8.680;2022-11-14T06:55:54;97054.09;;;8.70;63.08
55171;BME280;41060;47.510;8.680;2022-11-14T06:58:21;97055.78;;;8.71;63.68
55171;BME280;41060;47.510;8.680;2022-11-14T07:00:48;97057.44;;;8.61;63.44
55171;BME280;41060;47.510;8.680;2022-11-14T07:03:15;97062.72;;;8.61;63.32
55171;BME280;41060;47.510;8.680;2022-11-14T07:05:41;97061.31;;;8.68;63.26
55171;BME280;41060;47.510;8.680;2022-11-14T07:08:08;97064.66;;;8.70;63.17
55171;BME280;41060;47.510;8.680;2022-11-14T07:10:36;97073.03;;;8.64;63.17
55171;BME280;41060;47.510;8.680;2022-11-14T07:13:03;97077.47;;;8.64;63.16
55171;BME280;41060;47.510;8.680;2022-11-14T07:15:29;97072.75;;;8.56;63.78
55171;BME280;41060;47.510;8.680;2022-11-14T07:17:58;97070.19;;;8.55;63.93
55171;BME280;41060;47.510;8.680;2022-11-14T07:20:25;97070.09;;;8.56;63.47
55171;BME280;41060;47.510;8.680;2022-11-14T07:22:51;97074.22;;;8.60;63.61
55171;BME280;41060;47.510;8.680;2022-11-14T07:25:18;97071.75;;;8.70;63.91
55171;BME280;41060;47.510;8.680;2022-11-14T07:27:48;97066.50;;;8.57;63.68
55171;BME280;41060;47.510;8.680;2022-11-14T07:30:14;97078.66;;;8.47;63.76
55171;BME280;41060;47.510;8.680;2022-11-14T07:32:41;97086.56;;;8.23;64.55
55171;BME280;41060;47.510;8.680;2022-11-14T07:35:08;97084.66;;;8.13;65.29
55171;BME280;41060;47.510;8.680;2022-11-14T07:37:35;97087.81;;;8.18;65.13
55171;BME280;41060;47.510;8.680;2022-11-14T07:40:02;97094.22;;;8.39;64.56
55171;BME280;41060;47.510;8.680;2022-11-14T07:42:29;97082.34;;;8.57;64.00
55171;BME280;41060;47.510;8.680;2022-11-14T07:44:56;97091.44;;;8.77;63.39
55171;BME280;41060;47.510;8.680;2022-11-14T07:47:25;97090.34;;;8.92;62.90
55171;BME280;41060;47.510;8.680;2022-11-14T07:49:52;97099.28;;;9.02;62.90
55171;BME280;41060;47.510;8.680;2022-11-14T07:52:18;97090.91;;;9.08;62.78
55171;BME280;41060;47.510;8.680;2022-11-14T07:54:45;97096.81;;;9.12;62.01
55171;BME280;41060;47.510;8.680;2022-11-14T07:57:12;97081.81;;;9.12;62.16
55171;BME280;41060;47.510;8.680;2022-11-14T07:59:41;97086.25;;;9.12;61.76
55171;BME280;41060;47.510;8.680;2022-11-14T08:02:13;97089.59;;;9.14;61.84
55171;BME280;41060;47.510;8.680;2022-11-14T08:04:41;97082.09;;;8.97;62.04
55171;BME280;41060;47.510;8.680;2022-11-14T08:07:08;97089.75;;;9.12;61.93
55171;BME280;41060;47.510;8.680;2022-11-14T08:09:35;97085.69;;;9.20;62.00
55171;BME280;41060;47.510;8.680;2022-11-14T08:12:02;97092.81;;;9.06;62.22
55171;BME280;41060;47.510;8.680;2022-11-14T08:14:29;97088.66;;;8.91;63.18
55171;BME280;41060;47.510;8.680;2022-11-14T08:16:55;97085.78;;;8.94;63.06
55171;BME280;41060;47.510;8.680;2022-11-14T08:19:23;97085.78;;;8.94;63.31
55171;BME280;41060;47.510;8.680;2022-11-14T08:21:50;97092.31;;;9.01;63.33
55171;BME280;41060;47.510;8.680;2022-11-14T08:24:17;97095.00;;;8.89;63.61
55171;BME280;41060;47.510;8.680;2022-11-14T08:26:43;97088.25;;;8.85;63.94
55171;BME280;41060;47.510;8.680;2022-11-14T08:29:11;97083.31;;;8.80;64.17
55171;BME280;41060;47.510;8.680;2022-11-14T08:31:37;97087.53;;;8.83;64.57
55171;BME280;41060;47.510;8.680;2022-11-14T08:34:04;97086.47;;;8.85;64.21
55171;BME280;41060;47.510;8.680;2022-11-14T08:36:34;97079.28;;;8.87;64.30
55171;BME280;41060;47.510;8.680;2022-11-14T08:39:01;97079.22;;;8.76;64.44
55171;BME280;41060;47.510;8.680;2022-11-14T08:41:27;97078.34;;;8.52;64.95
55171;BME280;41060;47.510;8.680;2022-11-14T08:43:55;97075.56;;;8.66;65.05
55171;BME280;41060;47.510;8.680;2022-11-14T08:46:21;97076.91;;;8.71;65.20
55171;BME280;41060;47.510;8.680;2022-11-14T08:48:48;97071.72;;;8.83;64.67
55171;BME280;41060;47.510;8.680;2022-11-14T08:51:15;97087.66;;;8.81;64.89
55171;BME280;41060;47.510;8.680;2022-11-14T08:53:43;97080.28;;;8.73;65.66
55171;BME280;41060;47.510;8.680;2022-11-14T08:56:10;97033.72;;;8.49;65.54
55171;BME280;41060;47.510;8.680;2022-11-14T08:58:43;97082.84;;;8.62;66.76
55171;BME280;41060;47.510;8.680;2022-11-14T09:01:09;97062.94;;;8.82;65.58
55171;BME280;41060;47.510;8.680;2022-11-14T09:03:36;97070.97;;;8.81;65.63
55171;BME280;41060;47.510;8.680;2022-11-14T09:06:03;97073.28;;;8.61;66.49
55171;BME280;41060;47.510;8.680;2022-11-14T09:08:30;97032.50;;;8.29;67.24
55171;BME280;41060;47.510;8.680;2022-11-14T09:11:00;97062.38;;;8.66;66.82
55171;BME280;41060;47.510;8.680;2022-11-14T09:13:28;97061.91;;;8.72;66.54
55171;BME280;41060;47.510;8.680;2022-11-14T09:15:56;97056.47;;;8.86;65.77
55171;BME280;41060;47.510;8.680;2022-11-14T09:18:23;97064.75;;;8.82;66.40
55171;BME280;41060;47.510;8.680;2022-11-14T09:20:50;97077.94;;;8.82;67.01
55171;BME280;41060;47.510;8.680;2022-11-14T09:23:17;97080.69;;;8.80;65.79
55171;BME280;41060;47.510;8.680;2022-11-14T09:25:43;97068.72;;;9.11;65.83
55171;BME280;41060;47.510;8.680;2022-11-14T09:28:13;97080.25;;;9.21;65.46
55171;BME280;41060;47.510;8.680;2022-11-14T09:30:42;97076.41;;;9.38;64.71
55171;BME280;41060;47.510;8.680;2022-11-14T09:33:08;97067.16;;;9.43;64.69
55171;BME280;41060;47.510;8.680;2022-11-14T09:35:36;97060.13;;;9.66;64.38
55171;BME280;41060;47.510;8.680;2022-11-14T09:38:04;97054.13;;;9.75;63.71
55171;BME280;41060;47.510;8.680;2022-11-14T09:40:45;97069.78;;;9.89;64.48
55171;BME280;41060;47.510;8.680;2022-11-14T09:43:32;97062.09;;;9.86;63.21
55171;BME280;41060;47.510;8.680;2022-11-14T09:46:08;97062.69;;;10.01;63.08
55171;BME280;41060;47.510;8.680;2022-11-14T09:48:42;97068.59;;;10.16;62.97
55171;BME280;41060;47.510;8.680;2022-11-14T09:51:14;97070.25;;;10.28;62.52
55171;BME280;41060;47.510;8.680;2022-11-14T09:53:46;97070.38;;;10.38;62.27
55171;BME280;41060;47.510;8.680;2022-11-14T09:56:19;97075.41;;;10.41;62.36
55171;BME280;41060;47.510;8.680;2022-11-14T09:58:50;97070.63;;;10.46;61.70
55171;BME280;41060;47.510;8.680;2022-11-14T10:01:27;97050.75;;;10.40;61.21
55171;BME280;41060;47.510;8.680;2022-11-14T10:04:02;97078.53;;;10.57;61.35
55171;BME280;41060;47.510;8.680;2022-11-14T10:06:39;97085.66;;;10.45;62.11
55171;BME280;41060;47.510;8.680;2022-11-14T10:09:29;97094.78;;;10.41;64.16
55171;BME280;41060;47.510;8.680;2022-11-14T10:12:03;97089.75;;;10.27;64.99
55171;BME280;41060;47.510;8.680;2022-11-14T10:15:02;97086.50;;;10.34;64.23
55171;BME280;41060;47.510;8.680;2022-11-14T10:17:53;97094.28;;;10.47;63.76
55171;BME280;41060;47.510;8.680;2022-11-14T10:20:29;97099.00;;;10.44;64.17
55171;BME280;41060;47.510;8.680;2022-11-14T10:23:03;97097.34;;;10.31;64.46
55171;BME280;41060;47.510;8.680;2022-11-14T10:25:40;97099.13;;;10.20;65.41
55171;BME280;41060;47.510;8.680;2022-11-14T10:28:22;97104.56;;;10.29;65.40
55171;BME280;41060;47.510;8.680;2022-11-14T10:31:05;97111.66;;;10.29;65.75
55171;BME280;41060;47.510;8.680;2022-11-14T10:33:38;97107.91;;;10.20;66.44
55171;BME280;41060;47.510;8.680;2022-11-14T10:36:15;97115.13;;;10.41;65.88
55171;BME280;41060;47.510;8.680;2022-11-14T10:38:49;97109.72;;;10.53;65.65
55171;BME280;41060;47.510;8.680;2022-11-14T10:41:18;97097.09;;;10.68;65.22
55171;BME280;41060;47.510;8.680;2022-11-14T10:43:46;97080.72;;;10.74;64.97
55171;BME280;41060;47.510;8.680;2022-11-14T10:46:17;97090.19;;;10.77;64.68
55171;BME280;41060;47.510;8.680;2022-11-14T10:48:48;97092.03;;;10.65;65.55
55171;BME280;41060;47.510;8.680;2022-11-14T10:51:21;97081.78;;;10.71;65.66
55171;BME280;41060;47.510;8.680;2022-11-14T10:53:54;97093.59;;;10.67;65.50
55171;BME280;41060;47.510;8.680;2022-11-14T10:56:22;97086.25;;;10.71;65.34
55171;BME280;41060;47.510;8.680;2022-11-14T10:58:48;97092.03;;;10.65;64.71
55171;BME280;41060;47.510;8.680;2022-11-14T11:01:35;97096.38;;;10.66;65.12
55171;BME280;41060;47.510;8.680;2022-11-14T11:04:14;97105.00;;;10.57;65.57
55171;BME280;41060;47.510;8.680;2022-11-14T11:06:45;97091.53;;;10.60;65.18
55171;BME280;41060;47.510;8.680;2022-11-14T11:09:13;97092.16;;;10.63;65.30
55171;BME280;41060;47.510;8.680;2022-11-14T11:12:00;97106.94;;;10.55;66.29
55171;BME280;41060;47.510;8.680;2022-11-14T11:14:27;97096.59;;;10.63;65.69
55171;BME280;41060;47.510;8.680;2022-11-14T11:17:14;97093.44;;;10.80;65.66
55171;BME280;41060;47.510;8.680;2022-11-14T11:19:43;97091.25;;;10.85;65.39
55171;BME280;41060;47.510;8.680;2022-11-14T11:22:26;97085.47;;;10.91;65.37
55171;BME280;41060;47.510;8.680;2022-11-14T11:24:54;97097.63;;;10.94;65.20
55171;BME280;41060;47.510;8.680;2022-11-14T11:27:23;97084.72;;;11.00;64.95
55171;BME280;41060;47.510;8.680;2022-11-14T11:30:17;97086.63;;;11.09;64.82
55171;BME280;41060;47.510;8.680;2022-11-14T11:32:46;97074.09;;;11.12;64.78
55171;BME280;41060;47.510;8.680;2022-11-14T11:35:14;97077.44;;;11.14;64.31
55171;BME280;41060;47.510;8.680;2022-11-14T11:37:44;97063.56;;;11.21;64.56
55171;BME280;41060;47.510;8.680;2022-11-14T11:40:16;97076.03;;;11.09;66.50
55171;BME280;41060;47.510;8.680;2022-11-14T11:42:48;97084.09;;;11.08;66.85
55171;BME280;41060;47.510;8.680;2022-11-14T11:45:18;97086.13;;;11.16;66.22
55171;BME280;41060;47.510;8.680;2022-11-14T11:47:52;97081.88;;;11.24;66.53
55171;BME280;41060;47.510;8.680;2022-11-14T11:50:21;97077.81;;;11.20;66.00
55171;BME280;41060;47.510;8.680;2022-11-14T11:52:58;97072.63;;;11.19;65.60
55171;BME280;41060;47.510;8.680;2022-11-14T11:55:29;97072.00;;;11.26;65.75
55171;BME280;41060;47.510;8.680;2022-11-14T11:58:01;97085.94;;;11.28;66.14
55171;BME280;41060;47.510;8.680;2022-11-14T12:00:33;97087.41;;;11.21;65.74
55171;BME280;41060;47.510;8.680;2022-11-14T12:03:01;97077.50;;;11.34;65.73
55171;BME280;41060;47.510;8.680;2022-11-14T12:05:36;97081.03;;;11.44;65.43
55171;BME280;41060;47.510;8.680;2022-11-14T12:08:15;97076.06;;;11.51;65.62
55171;BME280;41060;47.510;8.680;2022-11-14T12:10:45;97086.56;;;11.53;66.02
55171;BME280;41060;47.510;8.680;2022-11-14T12:16:11;97041.56;;;11.41;66.08
55171;BME280;41060;47.510;8.680;2022-11-14T12:22:03;97079.75;;;11.60;65.46
55171;BME280;41060;47.510;8.680;2022-11-14T12:24:57;97079.31;;;11.75;65.23
55171;BME280;41060;47.510;8.680;2022-11-14T12:27:40;97075.91;;;11.64;66.23
55171;BME280;41060;47.510;8.680;2022-11-14T12:30:17;97072.19;;;11.76;66.02
55171;BME280;41060;47.510;8.680;2022-11-14T12:32:48;97074.72;;;11.77;65.25
55171;BME280;41060;47.510;8.680;2022-11-14T12:35:19;97076.78;;;11.74;66.02
55171;BME280;41060;47.510;8.680;2022-11-14T12:37:51;97071.78;;;11.80;64.52
55171;BME280;41060;47.510;8.680;2022-11-14T12:40:26;97075.44;;;11.79;64.31
55171;BME280;41060;47.510;8.680;2022-11-14T12:42:55;97073.22;;;11.84;63.53
55171;BME280;41060;47.510;8.680;2022-11-14T12:45:58;97078.63;;;11.94;64.04
55171;BME280;41060;47.510;8.680;2022-11-14T12:48:34;97079.19;;;11.98;64.15
55171;BME280;41060;47.510;8.680;2022-11-14T12:51:09;97080.47;;;12.03;63.85
55171;BME280;41060;47.510;8.680;2022-11-14T12:53:54;97086.63;;;12.04;64.19
55171;BME280;41060;47.510;8.680;2022-11-14T12:56:50;97084.69;;;12.06;63.75
55171;BME280;41060;47.510;8.680;2022-11-14T12:59:27;97079.31;;;11.96;64.29
55171;BME280;41060;47.510;8.680;2022-11-14T13:02:16;97090.34;;;11.92;64.25
55171;BME280;41060;47.510;8.680;2022-11-14T13:05:01;97087.88;;;12.00;64.25
55171;BME280;41060;47.510;8.680;2022-11-14T13:07:44;97088.31;;;12.05;64.05
55171;BME280;41060;47.510;8.680;2022-11-14T13:10:22;97078.28;;;12.08;64.00
55171;BME280;41060;47.510;8.680;2022-11-14T13:12:56;97080.09;;;12.08;63.91
55171;BME280;41060;47.510;8.680;2022-11-14T13:15:49;97084.03;;;12.13;64.12
55171;BME280;41060;47.510;8.680;2022-11-14T13:18:35;97087.53;;;12.14;63.58
55171;BME280;41060;47.510;8.680;2022-11-14T13:21:22;97074.56;;;12.20;63.65
55171;BME280;41060;47.510;8.680;2022-11-14T13:24:09;97072.34;;;12.25;63.25
55171;BME280;41060;47.510;8.680;2022-11-14T13:26:43;97071.38;;;12.26;63.21
55171;BME280;41060;47.510;8.680;2022-11-14T13:35:31;97063.63;;;12.14;64.08